Portada
METAR-TAF:

METAR-TAF

Aeroports :

Taiyuan, Xina

latitud: 37-47N, longitud: 112-33E, altitud: 779 m

Observació

L'informe es va fer fa 32 minuts, a les 03:00 UTC
Vent 4 kt del Nord-Est, variant entre Nord/Nord-Oest i Est
Temperatura 9°C
Humitat 71%
Pressió 1033 hPa
Visibilitat 10 km o més
Escasses núvols a una alçada de 4000 ft

METAR: ZBYN 150300Z 04002MPS 330V080 9999 FEW040 09/04 Q1033 NOSIG

Hora: 11:32 (03:32 UTC)

Pronòstic

L'informe es va fer fa 8 hores i 27 minuts, a les 19:05 UTC
Pronòstic vàlid del 15 a les 00 UTC al 15 a les 24 UTC
Vent 8 kt del Est
Visibilitat: 5000 m
boirina
Temporalment
l' 15 a les 20 UTC al 15 a les 24 UTC
Visibilitat: 2500 m
pluja, boirina

TAF: ZBYN 141905Z 1500/1524 09004MPS 5000 BR NSC TX12/1507Z TN04/1522Z TEMPO 1520/1524 2500 -RA BR

Observacions i pronòstics meteorològics de més de 4000 aeroports (METAR i TAF).

Les estacions disponibles són els punts grocs i vermells al mapa.

Posi el ratolí al punt desitjat per veure el nom de l'estació.

Feu clic per veure les observacions i els pronòstics meteorològics.

Per canviar el mapa: feu clic els botons verds amb una creu de color negre per apropar; al botó verd amb un guió per allunyar la imatge; o en les fletxes verdes per a mapes adjacents.


METAR-TAF: